sensor_id;sensor_type;location;lat;lon;timestamp;temperature;humidity
12006;DHT22;6062;47.294;12.182;2022-09-09T00:00:55;10.70;75.50
12006;DHT22;6062;47.294;12.182;2022-09-09T00:07:13;10.70;75.60
12006;DHT22;6062;47.294;12.182;2022-09-09T00:10:09;10.70;75.40
12006;DHT22;6062;47.294;12.182;2022-09-09T00:19:14;10.80;74.80
12006;DHT22;6062;47.294;12.182;2022-09-09T00:22:20;10.70;74.60
12006;DHT22;6062;47.294;12.182;2022-09-09T00:24:55;10.80;74.40
12006;DHT22;6062;47.294;12.182;2022-09-09T00:27:47;10.70;74.10
12006;DHT22;6062;47.294;12.182;2022-09-09T00:32:45;10.70;73.80
12006;DHT22;6062;47.294;12.182;2022-09-09T00:35:22;10.60;73.70
12006;DHT22;6062;47.294;12.182;2022-09-09T00:38:12;10.60;73.70
12006;DHT22;6062;47.294;12.182;2022-09-09T00:50:03;10.40;73.30
12006;DHT22;6062;47.294;12.182;2022-09-09T00:52:57;10.40;73.20
12006;DHT22;6062;47.294;12.182;2022-09-09T00:58:11;10.30;73.50
12006;DHT22;6062;47.294;12.182;2022-09-09T01:00:50;10.30;73.50
12006;DHT22;6062;47.294;12.182;2022-09-09T01:06:33;10.20;73.90
12006;DHT22;6062;47.294;12.182;2022-09-09T01:12:15;10.20;73.90
12006;DHT22;6062;47.294;12.182;2022-09-09T01:14:49;10.20;73.90
12006;DHT22;6062;47.294;12.182;2022-09-09T01:26:42;10.20;74.00
12006;DHT22;6062;47.294;12.182;2022-09-09T01:29:13;10.20;74.20
12006;DHT22;6062;47.294;12.182;2022-09-09T01:31:51;10.20;74.30
12006;DHT22;6062;47.294;12.182;2022-09-09T01:34:33;10.20;74.40
12006;DHT22;6062;47.294;12.182;2022-09-09T01:37:02;10.20;74.50
12006;DHT22;6062;47.294;12.182;2022-09-09T01:39:31;10.20;74.50
12006;DHT22;6062;47.294;12.182;2022-09-09T01:41:58;10.20;74.80
12006;DHT22;6062;47.294;12.182;2022-09-09T01:44:25;10.30;74.90
12006;DHT22;6062;47.294;12.182;2022-09-09T01:46:52;10.30;75.00
12006;DHT22;6062;47.294;12.182;2022-09-09T01:49:18;10.30;74.80
12006;DHT22;6062;47.294;12.182;2022-09-09T01:51:48;10.30;74.90
12006;DHT22;6062;47.294;12.182;2022-09-09T01:54:18;10.40;74.90
12006;DHT22;6062;47.294;12.182;2022-09-09T02:00:08;10.40;75.10
12006;DHT22;6062;47.294;12.182;2022-09-09T02:03:12;10.50;75.10
12006;DHT22;6062;47.294;12.182;2022-09-09T02:06:27;10.50;75.10
12006;DHT22;6062;47.294;12.182;2022-09-09T02:08:59;10.60;75.00
12006;DHT22;6062;47.294;12.182;2022-09-09T02:11:29;10.70;74.90
12006;DHT22;6062;47.294;12.182;2022-09-09T02:14:02;10.70;74.80
12006;DHT22;6062;47.294;12.182;2022-09-09T02:16:42;10.70;74.70
12006;DHT22;6062;47.294;12.182;2022-09-09T02:19:21;10.80;74.80
12006;DHT22;6062;47.294;12.182;2022-09-09T02:21:55;10.80;74.60
12006;DHT22;6062;47.294;12.182;2022-09-09T02:24:23;10.90;74.50
12006;DHT22;6062;47.294;12.182;2022-09-09T02:26:51;10.90;74.30
12006;DHT22;6062;47.294;12.182;2022-09-09T02:29:28;10.90;74.20
12006;DHT22;6062;47.294;12.182;2022-09-09T02:32:03;11.00;74.50
12006;DHT22;6062;47.294;12.182;2022-09-09T02:34:36;11.00;74.40
12006;DHT22;6062;47.294;12.182;2022-09-09T02:37:08;11.00;74.40
12006;DHT22;6062;47.294;12.182;2022-09-09T02:39:35;11.00;74.30
12006;DHT22;6062;47.294;12.182;2022-09-09T02:42:02;11.00;74.20
12006;DHT22;6062;47.294;12.182;2022-09-09T02:44:29;11.10;74.30
12006;DHT22;6062;47.294;12.182;2022-09-09T02:50:04;11.10;74.30
12006;DHT22;6062;47.294;12.182;2022-09-09T02:55:35;11.20;74.50
12006;DHT22;6062;47.294;12.182;2022-09-09T02:58:05;11.20;74.30
12006;DHT22;6062;47.294;12.182;2022-09-09T03:00:35;11.20;74.30
12006;DHT22;6062;47.294;12.182;2022-09-09T03:03:03;11.20;74.20
12006;DHT22;6062;47.294;12.182;2022-09-09T03:05:29;11.20;74.10
12006;DHT22;6062;47.294;12.182;2022-09-09T03:07:54;11.20;74.00
12006;DHT22;6062;47.294;12.182;2022-09-09T03:10:20;11.20;73.90
12006;DHT22;6062;47.294;12.182;2022-09-09T03:12:46;11.20;73.90
12006;DHT22;6062;47.294;12.182;2022-09-09T03:15:12;11.20;73.90
12006;DHT22;6062;47.294;12.182;2022-09-09T03:17:38;11.20;74.10
12006;DHT22;6062;47.294;12.182;2022-09-09T03:20:04;11.20;74.30
12006;DHT22;6062;47.294;12.182;2022-09-09T03:22:30;11.20;74.40
12006;DHT22;6062;47.294;12.182;2022-09-09T03:24:56;11.10;74.30
12006;DHT22;6062;47.294;12.182;2022-09-09T03:27:22;11.20;74.40
12006;DHT22;6062;47.294;12.182;2022-09-09T03:29:48;11.20;74.50
12006;DHT22;6062;47.294;12.182;2022-09-09T03:32:16;11.20;74.50
12006;DHT22;6062;47.294;12.182;2022-09-09T03:34:43;11.20;74.70
12006;DHT22;6062;47.294;12.182;2022-09-09T03:37:09;11.20;74.80
12006;DHT22;6062;47.294;12.182;2022-09-09T03:39:35;11.20;74.80
12006;DHT22;6062;47.294;12.182;2022-09-09T03:42:00;11.20;74.70
12006;DHT22;6062;47.294;12.182;2022-09-09T03:44:29;11.20;74.70
12006;DHT22;6062;47.294;12.182;2022-09-09T03:46:55;11.20;74.70
12006;DHT22;6062;47.294;12.182;2022-09-09T03:49:21;11.20;74.70
12006;DHT22;6062;47.294;12.182;2022-09-09T03:51:48;11.20;74.70
12006;DHT22;6062;47.294;12.182;2022-09-09T03:54:14;11.20;74.60
12006;DHT22;6062;47.294;12.182;2022-09-09T03:56:39;11.20;74.70
12006;DHT22;6062;47.294;12.182;2022-09-09T03:59:07;11.20;74.60
12006;DHT22;6062;47.294;12.182;2022-09-09T04:01:34;11.20;75.30
12006;DHT22;6062;47.294;12.182;2022-09-09T04:03:59;11.20;74.70
12006;DHT22;6062;47.294;12.182;2022-09-09T04:06:27;11.20;74.70
12006;DHT22;6062;47.294;12.182;2022-09-09T04:08:54;11.20;74.90
12006;DHT22;6062;47.294;12.182;2022-09-09T04:11:20;11.20;74.80
12006;DHT22;6062;47.294;12.182;2022-09-09T04:13:47;11.20;74.50
12006;DHT22;6062;47.294;12.182;2022-09-09T04:16:14;11.20;74.60
12006;DHT22;6062;47.294;12.182;2022-09-09T04:18:40;11.20;74.70
12006;DHT22;6062;47.294;12.182;2022-09-09T04:21:06;11.10;74.80
12006;DHT22;6062;47.294;12.182;2022-09-09T04:23:33;11.10;75.00
12006;DHT22;6062;47.294;12.182;2022-09-09T04:26:01;11.10;75.20
12006;DHT22;6062;47.294;12.182;2022-09-09T04:28:30;11.00;75.90
12006;DHT22;6062;47.294;12.182;2022-09-09T04:31:10;11.00;75.30
12006;DHT22;6062;47.294;12.182;2022-09-09T04:33:40;11.00;75.40
12006;DHT22;6062;47.294;12.182;2022-09-09T04:36:07;11.00;75.30
12006;DHT22;6062;47.294;12.182;2022-09-09T04:38:33;11.00;75.30
12006;DHT22;6062;47.294;12.182;2022-09-09T04:40:59;11.00;75.10
12006;DHT22;6062;47.294;12.182;2022-09-09T04:43:25;11.00;75.20
12006;DHT22;6062;47.294;12.182;2022-09-09T04:45:52;10.90;75.30
12006;DHT22;6062;47.294;12.182;2022-09-09T04:48:19;10.90;75.40
12006;DHT22;6062;47.294;12.182;2022-09-09T04:50:59;10.90;75.50
12006;DHT22;6062;47.294;12.182;2022-09-09T04:53:28;10.90;76.00
12006;DHT22;6062;47.294;12.182;2022-09-09T04:56:09;10.90;75.80
12006;DHT22;6062;47.294;12.182;2022-09-09T04:58:40;10.90;76.10
12006;DHT22;6062;47.294;12.182;2022-09-09T05:01:16;10.90;75.70
12006;DHT22;6062;47.294;12.182;2022-09-09T05:03:43;10.90;75.80
12006;DHT22;6062;47.294;12.182;2022-09-09T05:06:15;10.90;75.60
12006;DHT22;6062;47.294;12.182;2022-09-09T05:08:45;10.90;75.80
12006;DHT22;6062;47.294;12.182;2022-09-09T05:11:22;10.80;75.60
12006;DHT22;6062;47.294;12.182;2022-09-09T05:13:50;10.80;76.00
12006;DHT22;6062;47.294;12.182;2022-09-09T05:16:18;10.80;75.60
12006;DHT22;6062;47.294;12.182;2022-09-09T05:18:44;10.80;75.60
12006;DHT22;6062;47.294;12.182;2022-09-09T05:21:16;10.80;75.90
12006;DHT22;6062;47.294;12.182;2022-09-09T05:23:44;10.70;76.10
12006;DHT22;6062;47.294;12.182;2022-09-09T05:26:16;10.70;76.40
12006;DHT22;6062;47.294;12.182;2022-09-09T05:28:43;10.70;76.50
12006;DHT22;6062;47.294;12.182;2022-09-09T05:31:11;10.70;76.40
12006;DHT22;6062;47.294;12.182;2022-09-09T05:33:40;10.70;76.50
12006;DHT22;6062;47.294;12.182;2022-09-09T05:36:13;10.70;76.40
12006;DHT22;6062;47.294;12.182;2022-09-09T05:38:41;10.70;76.60
12006;DHT22;6062;47.294;12.182;2022-09-09T05:41:07;10.80;76.60
12006;DHT22;6062;47.294;12.182;2022-09-09T05:43:35;10.80;76.60
12006;DHT22;6062;47.294;12.182;2022-09-09T05:46:08;10.80;76.40
12006;DHT22;6062;47.294;12.182;2022-09-09T05:48:37;10.80;76.30
12006;DHT22;6062;47.294;12.182;2022-09-09T05:51:05;10.90;76.20
12006;DHT22;6062;47.294;12.182;2022-09-09T05:53:34;10.90;76.40
12006;DHT22;6062;47.294;12.182;2022-09-09T05:56:05;10.90;76.40
12006;DHT22;6062;47.294;12.182;2022-09-09T05:58:33;10.90;76.60
12006;DHT22;6062;47.294;12.182;2022-09-09T06:01:04;10.90;76.30
12006;DHT22;6062;47.294;12.182;2022-09-09T06:03:33;10.90;76.40
12006;DHT22;6062;47.294;12.182;2022-09-09T06:06:01;11.00;76.30
12006;DHT22;6062;47.294;12.182;2022-09-09T06:08:37;11.00;76.10
12006;DHT22;6062;47.294;12.182;2022-09-09T06:11:06;11.00;76.10
12006;DHT22;6062;47.294;12.182;2022-09-09T06:13:34;11.00;75.80
12006;DHT22;6062;47.294;12.182;2022-09-09T06:16:03;11.00;75.30
12006;DHT22;6062;47.294;12.182;2022-09-09T06:18:29;11.00;74.70
12006;DHT22;6062;47.294;12.182;2022-09-09T06:21:00;11.10;74.40
12006;DHT22;6062;47.294;12.182;2022-09-09T06:23:30;11.10;74.10
12006;DHT22;6062;47.294;12.182;2022-09-09T06:26:07;11.10;73.80
12006;DHT22;6062;47.294;12.182;2022-09-09T06:28:36;11.10;73.40
12006;DHT22;6062;47.294;12.182;2022-09-09T06:31:12;11.00;73.20
12006;DHT22;6062;47.294;12.182;2022-09-09T06:33:41;11.00;72.80
12006;DHT22;6062;47.294;12.182;2022-09-09T06:36:24;11.00;72.80
12006;DHT22;6062;47.294;12.182;2022-09-09T06:38:52;11.00;72.90
12006;DHT22;6062;47.294;12.182;2022-09-09T06:41:19;11.00;72.80
12006;DHT22;6062;47.294;12.182;2022-09-09T06:43:48;11.10;72.90
12006;DHT22;6062;47.294;12.182;2022-09-09T06:48:44;11.00;73.60
12006;DHT22;6062;47.294;12.182;2022-09-09T06:51:17;11.00;74.20
12006;DHT22;6062;47.294;12.182;2022-09-09T06:53:46;10.90;73.50
12006;DHT22;6062;47.294;12.182;2022-09-09T06:56:29;10.90;73.60
12006;DHT22;6062;47.294;12.182;2022-09-09T06:58:58;10.80;74.40
12006;DHT22;6062;47.294;12.182;2022-09-09T07:01:34;10.70;74.40
12006;DHT22;6062;47.294;12.182;2022-09-09T07:04:01;10.60;74.60
12006;DHT22;6062;47.294;12.182;2022-09-09T07:06:31;10.60;75.00
12006;DHT22;6062;47.294;12.182;2022-09-09T07:08:59;10.60;75.30
12006;DHT22;6062;47.294;12.182;2022-09-09T07:11:31;10.60;75.60
12006;DHT22;6062;47.294;12.182;2022-09-09T07:14:20;10.60;75.90
12006;DHT22;6062;47.294;12.182;2022-09-09T07:16:47;10.60;75.90
12006;DHT22;6062;47.294;12.182;2022-09-09T07:19:13;10.60;76.00
12006;DHT22;6062;47.294;12.182;2022-09-09T07:21:40;10.60;76.10
12006;DHT22;6062;47.294;12.182;2022-09-09T07:24:06;10.60;76.90
12006;DHT22;6062;47.294;12.182;2022-09-09T07:26:37;10.60;76.00
12006;DHT22;6062;47.294;12.182;2022-09-09T07:29:04;10.60;75.90
12006;DHT22;6062;47.294;12.182;2022-09-09T07:31:32;10.70;76.00
12006;DHT22;6062;47.294;12.182;2022-09-09T07:34:00;10.70;75.90
12006;DHT22;6062;47.294;12.182;2022-09-09T07:36:31;10.70;75.30
12006;DHT22;6062;47.294;12.182;2022-09-09T07:39:01;10.70;75.00
12006;DHT22;6062;47.294;12.182;2022-09-09T07:41:41;10.70;74.40
12006;DHT22;6062;47.294;12.182;2022-09-09T07:44:10;10.80;74.20
12006;DHT22;6062;47.294;12.182;2022-09-09T07:46:38;10.80;74.00
12006;DHT22;6062;47.294;12.182;2022-09-09T07:49:05;10.80;74.00
12006;DHT22;6062;47.294;12.182;2022-09-09T07:51:34;10.80;73.90
12006;DHT22;6062;47.294;12.182;2022-09-09T07:54:05;10.80;74.10
12006;DHT22;6062;47.294;12.182;2022-09-09T07:56:33;10.80;74.30
12006;DHT22;6062;47.294;12.182;2022-09-09T07:58:59;10.80;74.40
12006;DHT22;6062;47.294;12.182;2022-09-09T08:01:32;10.80;74.70
12006;DHT22;6062;47.294;12.182;2022-09-09T08:04:26;10.80;73.90
12006;DHT22;6062;47.294;12.182;2022-09-09T08:06:59;10.80;73.40
12006;DHT22;6062;47.294;12.182;2022-09-09T08:09:26;10.80;73.40
12006;DHT22;6062;47.294;12.182;2022-09-09T08:11:54;10.80;73.20
12006;DHT22;6062;47.294;12.182;2022-09-09T08:14:22;10.80;73.20
12006;DHT22;6062;47.294;12.182;2022-09-09T08:16:49;10.80;73.30
12006;DHT22;6062;47.294;12.182;2022-09-09T08:19:16;10.80;73.50
12006;DHT22;6062;47.294;12.182;2022-09-09T08:21:43;10.80;73.50
12006;DHT22;6062;47.294;12.182;2022-09-09T08:24:11;10.80;73.20
12006;DHT22;6062;47.294;12.182;2022-09-09T08:26:45;10.80;73.20
12006;DHT22;6062;47.294;12.182;2022-09-09T08:29:14;10.80;73.50
12006;DHT22;6062;47.294;12.182;2022-09-09T08:31:49;10.80;73.10
12006;DHT22;6062;47.294;12.182;2022-09-09T08:34:16;10.80;73.10
12006;DHT22;6062;47.294;12.182;2022-09-09T08:36:47;10.80;72.70
12006;DHT22;6062;47.294;12.182;2022-09-09T08:39:16;10.80;72.50
12006;DHT22;6062;47.294;12.182;2022-09-09T08:50:35;10.80;72.00
12006;DHT22;6062;47.294;12.182;2022-09-09T08:53:22;10.80;71.70
12006;DHT22;6062;47.294;12.182;2022-09-09T08:55:59;10.80;71.20
12006;DHT22;6062;47.294;12.182;2022-09-09T08:58:32;10.80;71.50
12006;DHT22;6062;47.294;12.182;2022-09-09T09:13:20;10.80;71.80
12006;DHT22;6062;47.294;12.182;2022-09-09T09:16:00;10.80;71.80
12006;DHT22;6062;47.294;12.182;2022-09-09T09:18:35;10.80;71.80
12006;DHT22;6062;47.294;12.182;2022-09-09T09:21:32;10.80;71.80
12006;DHT22;6062;47.294;12.182;2022-09-09T09:23:59;10.80;71.50
12006;DHT22;6062;47.294;12.182;2022-09-09T09:26:34;10.90;71.10
12006;DHT22;6062;47.294;12.182;2022-09-09T09:29:11;10.90;71.00
12006;DHT22;6062;47.294;12.182;2022-09-09T09:31:47;10.90;71.10
12006;DHT22;6062;47.294;12.182;2022-09-09T09:34:16;11.00;70.70
12006;DHT22;6062;47.294;12.182;2022-09-09T09:36:46;11.00;71.50
12006;DHT22;6062;47.294;12.182;2022-09-09T09:39:33;11.00;71.00
12006;DHT22;6062;47.294;12.182;2022-09-09T09:42:11;11.10;71.30
12006;DHT22;6062;47.294;12.182;2022-09-09T09:44:39;11.20;71.90
12006;DHT22;6062;47.294;12.182;2022-09-09T09:49:57;11.40;72.20
12006;DHT22;6062;47.294;12.182;2022-09-09T09:52:26;11.50;72.20
12006;DHT22;6062;47.294;12.182;2022-09-09T09:54:57;11.70;71.50
12006;DHT22;6062;47.294;12.182;2022-09-09T09:57:29;11.90;71.70
12006;DHT22;6062;47.294;12.182;2022-09-09T10:02:43;12.30;71.60
12006;DHT22;6062;47.294;12.182;2022-09-09T10:05:14;12.50;71.90
12006;DHT22;6062;47.294;12.182;2022-09-09T10:07:42;12.70;70.20
12006;DHT22;6062;47.294;12.182;2022-09-09T10:10:28;12.80;69.90
12006;DHT22;6062;47.294;12.182;2022-09-09T10:24:42;12.80;67.00
12006;DHT22;6062;47.294;12.182;2022-09-09T10:27:55;12.70;67.00
12006;DHT22;6062;47.294;12.182;2022-09-09T10:30:48;12.60;67.30
12006;DHT22;6062;47.294;12.182;2022-09-09T10:36:21;12.30;68.20
12006;DHT22;6062;47.294;12.182;2022-09-09T10:41:58;12.10;69.10
12006;DHT22;6062;47.294;12.182;2022-09-09T10:45:17;12.10;69.70
12006;DHT22;6062;47.294;12.182;2022-09-09T10:48:42;12.10;69.90
12006;DHT22;6062;47.294;12.182;2022-09-09T10:51:40;12.10;70.00
12006;DHT22;6062;47.294;12.182;2022-09-09T10:57:16;12.20;70.40
12006;DHT22;6062;47.294;12.182;2022-09-09T10:59:53;12.20;70.10
12006;DHT22;6062;47.294;12.182;2022-09-09T11:02:29;12.20;70.10
12006;DHT22;6062;47.294;12.182;2022-09-09T11:05:03;12.30;70.60
12006;DHT22;6062;47.294;12.182;2022-09-09T11:07:43;12.30;70.70
12006;DHT22;6062;47.294;12.182;2022-09-09T11:13:29;12.30;70.10
12006;DHT22;6062;47.294;12.182;2022-09-09T11:16:30;12.20;70.10
12006;DHT22;6062;47.294;12.182;2022-09-09T11:19:04;12.20;70.10
12006;DHT22;6062;47.294;12.182;2022-09-09T11:21:50;12.10;70.20
12006;DHT22;6062;47.294;12.182;2022-09-09T11:24:32;12.00;70.70
12006;DHT22;6062;47.294;12.182;2022-09-09T11:32:47;11.70;71.20
12006;DHT22;6062;47.294;12.182;2022-09-09T11:44:43;11.20;72.20
12006;DHT22;6062;47.294;12.182;2022-09-09T11:47:24;11.10;72.60
12006;DHT22;6062;47.294;12.182;2022-09-09T11:50:41;11.00;73.30
12006;DHT22;6062;47.294;12.182;2022-09-09T11:52:43;10.90;73.60
12006;DHT22;6062;47.294;12.182;2022-09-09T11:55:28;10.90;73.70
12006;DHT22;6062;47.294;12.182;2022-09-09T11:57:59;10.80;74.00
12006;DHT22;6062;47.294;12.182;2022-09-09T12:00:38;10.80;74.30
12006;DHT22;6062;47.294;12.182;2022-09-09T12:03:45;10.80;74.90
12006;DHT22;6062;47.294;12.182;2022-09-09T12:06:18;10.80;75.40
12006;DHT22;6062;47.294;12.182;2022-09-09T12:09:06;10.80;75.20
12006;DHT22;6062;47.294;12.182;2022-09-09T12:11:41;10.90;75.10
12006;DHT22;6062;47.294;12.182;2022-09-09T12:14:20;10.90;75.90
12006;DHT22;6062;47.294;12.182;2022-09-09T12:17:30;11.00;75.30
12006;DHT22;6062;47.294;12.182;2022-09-09T12:20:20;11.10;75.20
12006;DHT22;6062;47.294;12.182;2022-09-09T12:23:00;11.10;75.20
12006;DHT22;6062;47.294;12.182;2022-09-09T12:26:03;11.10;75.00
12006;DHT22;6062;47.294;12.182;2022-09-09T12:29:06;11.10;74.70
12006;DHT22;6062;47.294;12.182;2022-09-09T12:34:36;11.00;74.80
12006;DHT22;6062;47.294;12.182;2022-09-09T12:40:03;10.90;74.60
12006;DHT22;6062;47.294;12.182;2022-09-09T12:42:31;10.90;74.70
12006;DHT22;6062;47.294;12.182;2022-09-09T12:45:02;10.90;74.60
12006;DHT22;6062;47.294;12.182;2022-09-09T12:47:52;10.90;74.70
12006;DHT22;6062;47.294;12.182;2022-09-09T12:50:24;10.80;74.80
12006;DHT22;6062;47.294;12.182;2022-09-09T12:53:02;10.80;74.90
12006;DHT22;6062;47.294;12.182;2022-09-09T12:55:35;10.80;75.20
12006;DHT22;6062;47.294;12.182;2022-09-09T12:58:04;10.80;74.90
12006;DHT22;6062;47.294;12.182;2022-09-09T13:00:32;10.70;74.70
12006;DHT22;6062;47.294;12.182;2022-09-09T13:03:20;10.70;74.40
12006;DHT22;6062;47.294;12.182;2022-09-09T13:05:47;10.70;74.60
12006;DHT22;6062;47.294;12.182;2022-09-09T13:08:14;10.60;74.70
12006;DHT22;6062;47.294;12.182;2022-09-09T13:10:49;10.60;74.90
12006;DHT22;6062;47.294;12.182;2022-09-09T13:13:26;10.60;75.00
12006;DHT22;6062;47.294;12.182;2022-09-09T13:16:00;10.60;75.10
12006;DHT22;6062;47.294;12.182;2022-09-09T13:18:31;10.50;75.20
12006;DHT22;6062;47.294;12.182;2022-09-09T13:20:59;10.50;75.20
12006;DHT22;6062;47.294;12.182;2022-09-09T13:23:36;10.50;75.50
12006;DHT22;6062;47.294;12.182;2022-09-09T13:26:20;10.50;75.70
12006;DHT22;6062;47.294;12.182;2022-09-09T13:28:54;10.50;75.50
12006;DHT22;6062;47.294;12.182;2022-09-09T13:31:40;10.40;75.10
12006;DHT22;6062;47.294;12.182;2022-09-09T13:36:39;10.30;75.70
12006;DHT22;6062;47.294;12.182;2022-09-09T13:39:15;10.30;75.80
12006;DHT22;6062;47.294;12.182;2022-09-09T13:41:44;10.20;76.00
12006;DHT22;6062;47.294;12.182;2022-09-09T13:44:20;10.20;76.10
12006;DHT22;6062;47.294;12.182;2022-09-09T13:47:01;10.20;76.20
12006;DHT22;6062;47.294;12.182;2022-09-09T13:49:32;10.20;76.40
12006;DHT22;6062;47.294;12.182;2022-09-09T13:52:09;10.30;76.60
12006;DHT22;6062;47.294;12.182;2022-09-09T13:54:37;10.30;76.70
12006;DHT22;6062;47.294;12.182;2022-09-09T13:57:03;10.40;76.40
12006;DHT22;6062;47.294;12.182;2022-09-09T13:59:30;10.50;76.30
12006;DHT22;6062;47.294;12.182;2022-09-09T14:01:57;10.50;76.30
12006;DHT22;6062;47.294;12.182;2022-09-09T14:04:23;10.60;76.60
12006;DHT22;6062;47.294;12.182;2022-09-09T14:06:49;10.70;76.80
12006;DHT22;6062;47.294;12.182;2022-09-09T14:09:17;10.80;76.70
12006;DHT22;6062;47.294;12.182;2022-09-09T14:11:44;10.80;76.30
12006;DHT22;6062;47.294;12.182;2022-09-09T14:14:11;10.80;75.80
12006;DHT22;6062;47.294;12.182;2022-09-09T14:16:37;10.80;75.50
12006;DHT22;6062;47.294;12.182;2022-09-09T14:19:03;10.80;75.20
12006;DHT22;6062;47.294;12.182;2022-09-09T14:21:29;10.80;75.30
12006;DHT22;6062;47.294;12.182;2022-09-09T14:23:55;10.70;75.50
12006;DHT22;6062;47.294;12.182;2022-09-09T14:26:24;10.70;75.90
12006;DHT22;6062;47.294;12.182;2022-09-09T14:28:50;10.70;76.30
12006;DHT22;6062;47.294;12.182;2022-09-09T14:31:17;10.70;76.20
12006;DHT22;6062;47.294;12.182;2022-09-09T14:33:44;10.70;76.10
12006;DHT22;6062;47.294;12.182;2022-09-09T14:36:10;10.70;76.00
12006;DHT22;6062;47.294;12.182;2022-09-09T14:38:37;10.70;76.00
12006;DHT22;6062;47.294;12.182;2022-09-09T14:41:05;10.70;75.90
12006;DHT22;6062;47.294;12.182;2022-09-09T14:43:32;10.80;75.60
12006;DHT22;6062;47.294;12.182;2022-09-09T14:46:11;10.80;75.40
12006;DHT22;6062;47.294;12.182;2022-09-09T14:48:38;10.80;75.20
12006;DHT22;6062;47.294;12.182;2022-09-09T14:51:12;10.90;75.20
12006;DHT22;6062;47.294;12.182;2022-09-09T14:53:43;10.90;74.80
12006;DHT22;6062;47.294;12.182;2022-09-09T14:56:14;10.90;74.80
12006;DHT22;6062;47.294;12.182;2022-09-09T14:58:42;10.90;74.80
12006;DHT22;6062;47.294;12.182;2022-09-09T15:01:14;10.90;74.80
12006;DHT22;6062;47.294;12.182;2022-09-09T15:03:43;10.90;74.60
12006;DHT22;6062;47.294;12.182;2022-09-09T15:06:15;11.00;74.50
12006;DHT22;6062;47.294;12.182;2022-09-09T15:08:43;11.00;74.50
12006;DHT22;6062;47.294;12.182;2022-09-09T15:11:10;11.00;74.40
12006;DHT22;6062;47.294;12.182;2022-09-09T15:13:38;11.00;74.40
12006;DHT22;6062;47.294;12.182;2022-09-09T15:16:14;11.00;74.10
12006;DHT22;6062;47.294;12.182;2022-09-09T15:18:41;11.00;73.90
12006;DHT22;6062;47.294;12.182;2022-09-09T15:21:11;11.00;73.70
12006;DHT22;6062;47.294;12.182;2022-09-09T15:23:38;11.00;73.60
12006;DHT22;6062;47.294;12.182;2022-09-09T15:26:05;11.10;73.70
12006;DHT22;6062;47.294;12.182;2022-09-09T15:28:33;11.10;73.60
12006;DHT22;6062;47.294;12.182;2022-09-09T15:31:14;11.10;73.40
12006;DHT22;6062;47.294;12.182;2022-09-09T15:33:51;11.10;73.30
12006;DHT22;6062;47.294;12.182;2022-09-09T15:36:30;11.10;73.40
12006;DHT22;6062;47.294;12.182;2022-09-09T15:38:58;11.10;73.20
12006;DHT22;6062;47.294;12.182;2022-09-09T15:41:26;11.10;73.20
12006;DHT22;6062;47.294;12.182;2022-09-09T15:43:56;11.20;73.30
12006;DHT22;6062;47.294;12.182;2022-09-09T15:46:31;11.20;73.20
12006;DHT22;6062;47.294;12.182;2022-09-09T15:51:37;11.20;73.20
12006;DHT22;6062;47.294;12.182;2022-09-09T15:54:05;11.30;72.80
12006;DHT22;6062;47.294;12.182;2022-09-09T15:56:31;11.30;72.60
12006;DHT22;6062;47.294;12.182;2022-09-09T15:59:00;11.30;72.40
12006;DHT22;6062;47.294;12.182;2022-09-09T16:01:30;11.30;71.90
12006;DHT22;6062;47.294;12.182;2022-09-09T16:03:58;11.30;71.60
12006;DHT22;6062;47.294;12.182;2022-09-09T16:06:24;11.30;71.50
12006;DHT22;6062;47.294;12.182;2022-09-09T16:08:54;11.20;71.10
12006;DHT22;6062;47.294;12.182;2022-09-09T16:11:29;11.20;71.10
12006;DHT22;6062;47.294;12.182;2022-09-09T16:13:58;11.20;70.80
12006;DHT22;6062;47.294;12.182;2022-09-09T16:16:26;11.20;70.80
12006;DHT22;6062;47.294;12.182;2022-09-09T16:19:02;11.10;70.50
12006;DHT22;6062;47.294;12.182;2022-09-09T16:21:34;11.10;70.40
12006;DHT22;6062;47.294;12.182;2022-09-09T16:24:03;11.10;70.20
12006;DHT22;6062;47.294;12.182;2022-09-09T16:26:33;11.00;70.10
12006;DHT22;6062;47.294;12.182;2022-09-09T16:29:01;11.00;70.10
12006;DHT22;6062;47.294;12.182;2022-09-09T16:31:29;11.00;70.10
12006;DHT22;6062;47.294;12.182;2022-09-09T16:33:57;11.00;70.60
12006;DHT22;6062;47.294;12.182;2022-09-09T16:36:28;10.90;69.80
12006;DHT22;6062;47.294;12.182;2022-09-09T16:38:57;10.90;70.20
12006;DHT22;6062;47.294;12.182;2022-09-09T16:41:26;10.90;70.60
12006;DHT22;6062;47.294;12.182;2022-09-09T16:44:04;10.90;70.80
12006;DHT22;6062;47.294;12.182;2022-09-09T16:46:33;10.80;70.90
12006;DHT22;6062;47.294;12.182;2022-09-09T16:49:02;10.80;71.20
12006;DHT22;6062;47.294;12.182;2022-09-09T16:51:42;10.70;71.40
12006;DHT22;6062;47.294;12.182;2022-09-09T16:54:10;10.70;71.60
12006;DHT22;6062;47.294;12.182;2022-09-09T16:56:39;10.60;71.60
12006;DHT22;6062;47.294;12.182;2022-09-09T16:59:17;10.60;71.70
12006;DHT22;6062;47.294;12.182;2022-09-09T17:01:46;10.60;72.00
12006;DHT22;6062;47.294;12.182;2022-09-09T17:04:21;10.50;72.00
12006;DHT22;6062;47.294;12.182;2022-09-09T17:06:52;10.50;72.30
12006;DHT22;6062;47.294;12.182;2022-09-09T17:09:20;10.40;72.20
12006;DHT22;6062;47.294;12.182;2022-09-09T17:11:48;10.40;72.00
12006;DHT22;6062;47.294;12.182;2022-09-09T17:14:17;10.30;71.90
12006;DHT22;6062;47.294;12.182;2022-09-09T17:16:44;10.20;72.00
12006;DHT22;6062;47.294;12.182;2022-09-09T17:19:11;10.20;72.70
12006;DHT22;6062;47.294;12.182;2022-09-09T17:21:38;10.10;72.10
12006;DHT22;6062;47.294;12.182;2022-09-09T17:24:04;10.00;72.40
12006;DHT22;6062;47.294;12.182;2022-09-09T17:26:32;10.00;72.60
12006;DHT22;6062;47.294;12.182;2022-09-09T17:29:02;9.90;73.00
12006;DHT22;6062;47.294;12.182;2022-09-09T17:31:28;9.90;73.30
12006;DHT22;6062;47.294;12.182;2022-09-09T17:33:55;9.90;73.60
12006;DHT22;6062;47.294;12.182;2022-09-09T17:36:24;9.80;73.70
12006;DHT22;6062;47.294;12.182;2022-09-09T17:38:52;9.80;74.10
12006;DHT22;6062;47.294;12.182;2022-09-09T17:41:24;9.80;74.30
12006;DHT22;6062;47.294;12.182;2022-09-09T17:43:52;9.70;74.60
12006;DHT22;6062;47.294;12.182;2022-09-09T17:46:20;9.70;74.80
12006;DHT22;6062;47.294;12.182;2022-09-09T17:48:49;9.70;75.10
12006;DHT22;6062;47.294;12.182;2022-09-09T17:51:19;9.70;75.30
12006;DHT22;6062;47.294;12.182;2022-09-09T17:53:49;9.70;75.50
12006;DHT22;6062;47.294;12.182;2022-09-09T17:56:19;9.70;75.60
12006;DHT22;6062;47.294;12.182;2022-09-09T17:58:46;9.70;75.80
12006;DHT22;6062;47.294;12.182;2022-09-09T18:01:17;9.70;75.90
12006;DHT22;6062;47.294;12.182;2022-09-09T18:03:49;9.70;76.00
12006;DHT22;6062;47.294;12.182;2022-09-09T18:06:18;9.80;76.10
12006;DHT22;6062;47.294;12.182;2022-09-09T18:08:53;9.80;76.10
12006;DHT22;6062;47.294;12.182;2022-09-09T18:11:22;9.80;76.30
12006;DHT22;6062;47.294;12.182;2022-09-09T18:13:54;9.80;76.40